Time;durP1;ratioP1;P1;durP2;ratioP2;P2;SDS_P1;SDS_P2;PMS_P1;PMS_P2;Temp;Humidity;BMP_temperature;BMP_pressure;BME280_temperature;BME280_humidity;BME280_pressure;Samples;Min_cycle;Max_cycle;Signal;HPM_P1;HPM_P2
2023/03/11 00:00:31;;;;;;;5.50;3.30;;;-0.20;99.90;;;;;;5005813;28;20253;-62
2023/03/11 00:03:02;;;;;;;13.53;4.30;;;-0.20;99.90;;;;;;5020444;28;20228;-61
2023/03/11 00:05:32;;;;;;;13.07;6.67;;;-0.20;99.90;;;;;;5015142;28;20226;-62
2023/03/11 00:08:03;;;;;;;11.47;6.33;;;-0.30;99.90;;;;;;5000712;28;20317;-61
2023/03/11 00:10:33;;;;;;;8.90;5.23;;;-0.30;99.90;;;;;;5006675;28;20222;-62
2023/03/11 00:13:02;;;;;;;7.60;5.23;;;-0.40;99.90;;;;;;5023286;28;20240;-62
2023/03/11 00:15:31;;;;;;;9.27;5.77;;;-0.40;99.90;;;;;;5024595;28;20591;-62
2023/03/11 00:18:00;;;;;;;16.57;7.00;;;-0.40;99.90;;;;;;5022667;28;20264;-62
2023/03/11 00:20:30;;;;;;;29.03;9.67;;;-0.40;99.90;;;;;;5012206;28;20237;-62
2023/03/11 00:22:58;;;;;;;11.40;5.80;;;-0.40;99.90;;;;;;5003152;28;20210;-62
2023/03/11 00:25:30;;;;;;;12.17;4.40;;;-0.40;99.90;;;;;;4996871;28;20187;-62
2023/03/11 00:27:59;;;;;;;13.20;5.00;;;-0.40;99.90;;;;;;5005109;28;20190;-63
2023/03/11 00:30:29;;;;;;;20.07;6.37;;;-0.40;99.90;;;;;;5001210;28;20284;-62
2023/03/11 00:32:58;;;;;;;24.63;9.27;;;-0.30;99.90;;;;;;5014211;28;20304;-62
2023/03/11 00:35:29;;;;;;;15.47;7.90;;;-0.40;99.90;;;;;;5021943;28;20213;-62
2023/03/11 00:37:59;;;;;;;15.17;6.70;;;-0.40;99.90;;;;;;5015669;28;20824;-62
2023/03/11 00:40:30;;;;;;;16.63;6.40;;;-0.40;99.90;;;;;;5019128;28;20209;-62
2023/03/11 00:42:59;;;;;;;22.60;7.80;;;-0.30;99.90;;;;;;5027204;28;20186;-62
2023/03/11 00:45:29;;;;;;;16.40;5.73;;;-0.30;99.90;;;;;;5004502;28;20221;-62
2023/03/11 00:47:57;;;;;;;9.50;5.50;;;-0.40;99.90;;;;;;5025646;28;20607;-62
2023/03/11 00:50:28;;;;;;;7.90;5.07;;;-0.40;99.90;;;;;;5019894;28;20268;-62
2023/03/11 00:52:57;;;;;;;15.07;4.97;;;-0.50;99.90;;;;;;5011757;28;20608;-63
2023/03/11 00:55:29;;;;;;;6.77;3.87;;;-0.60;99.90;;;;;;5009245;28;20230;-62
2023/03/11 00:57:59;;;;;;;10.90;4.73;;;-0.70;99.90;;;;;;5005976;28;20198;-62
2023/03/11 01:00:29;;;;;;;14.20;5.07;;;-0.70;99.90;;;;;;5011252;28;20651;-62
2023/03/11 01:02:59;;;;;;;10.07;4.70;;;-0.70;99.90;;;;;;5012061;28;20285;-62
2023/03/11 01:05:29;;;;;;;13.20;4.57;;;-0.80;99.90;;;;;;5007467;28;20260;-62
2023/03/11 01:07:58;;;;;;;13.97;5.17;;;-0.70;99.90;;;;;;5012701;28;20230;-62
2023/03/11 01:10:29;;;;;;;10.47;4.97;;;-0.60;99.90;;;;;;5007815;28;20198;-62
2023/03/11 01:12:57;;;;;;;13.80;4.50;;;-0.60;99.90;;;;;;5003450;28;20273;-62
2023/03/11 01:15:27;;;;;;;15.80;4.87;;;-0.60;99.90;;;;;;5022363;28;20248;-62
2023/03/11 01:17:56;;;;;;;18.60;5.13;;;-0.60;99.90;;;;;;5017937;28;20237;-62
2023/03/11 01:20:24;;;;;;;16.57;4.73;;;-0.50;99.90;;;;;;5006692;28;20760;-62
2023/03/11 01:22:52;;;;;;;12.70;4.60;;;-0.50;99.90;;;;;;5008959;28;20267;-63
2023/03/11 01:25:22;;;;;;;11.93;5.03;;;-0.50;99.90;;;;;;5028164;28;20197;-62
2023/03/11 01:27:52;;;;;;;15.43;6.40;;;-0.50;99.90;;;;;;5028823;28;20189;-62
2023/03/11 01:30:22;;;;;;;13.50;5.57;;;-0.50;99.90;;;;;;5026691;28;20220;-62
2023/03/11 01:32:51;;;;;;;10.23;5.00;;;-0.50;99.90;;;;;;5011084;28;20216;-62
2023/03/11 01:35:23;;;;;;;11.07;5.20;;;-0.50;99.90;;;;;;5030069;28;20221;-62
2023/03/11 01:37:51;;;;;;;8.53;5.33;;;-0.50;99.90;;;;;;5023260;28;20225;-62
2023/03/11 01:40:24;;;;;;;13.00;5.53;;;-0.40;99.90;;;;;;5024581;28;20220;-62
2023/03/11 01:42:53;;;;;;;14.23;5.50;;;-0.40;99.90;;;;;;5026063;28;20209;-62
2023/03/11 01:45:39;;;;;;;10.77;4.77;;;-0.50;99.90;;;;;;5031710;28;20213;-62
2023/03/11 01:48:09;;;;;;;9.87;5.13;;;-0.50;99.90;;;;;;5027592;28;20271;-61
2023/03/11 01:50:40;;;;;;;13.43;5.60;;;-0.50;99.90;;;;;;5030496;28;20243;-62
2023/03/11 01:53:10;;;;;;;11.00;5.33;;;-0.40;99.90;;;;;;5006876;28;20292;-62
2023/03/11 01:55:39;;;;;;;9.10;5.30;;;-0.40;99.90;;;;;;5027788;28;20221;-62
2023/03/11 01:58:14;;;;;;;11.67;5.00;;;-0.40;99.90;;;;;;5025182;28;20197;-62
2023/03/11 02:00:43;;;;;;;8.07;4.87;;;-0.40;99.90;;;;;;5025213;28;20223;-62
2023/03/11 02:03:15;;;;;;;12.73;5.03;;;-0.40;99.90;;;;;;5009110;28;20222;-62
2023/03/11 02:05:47;;;;;;;14.67;5.50;;;-0.30;99.90;;;;;;5022912;28;20236;-62
2023/03/11 02:08:15;;;;;;;11.63;5.10;;;-0.30;99.90;;;;;;5028160;28;20225;-62
2023/03/11 02:10:45;;;;;;;6.37;4.87;;;-0.30;99.90;;;;;;5027537;28;20247;-62
2023/03/11 02:13:16;;;;;;;10.20;5.10;;;-0.20;99.90;;;;;;5028401;28;20217;-62
2023/03/11 02:15:45;;;;;;;9.73;5.50;;;-0.20;99.90;;;;;;5023475;28;20267;-62
2023/03/11 02:18:17;;;;;;;7.47;5.30;;;-0.20;99.90;;;;;;5028176;28;20221;-62
2023/03/11 02:20:50;;;;;;;12.10;5.17;;;-0.10;99.90;;;;;;5028718;28;20294;-62
2023/03/11 02:23:23;;;;;;;6.93;4.93;;;-0.10;99.90;;;;;;5015368;28;20688;-62
2023/03/11 02:26:00;;;;;;;12.20;5.27;;;0.00;99.90;;;;;;5002481;28;20314;-62
2023/03/11 02:28:31;;;;;;;13.47;4.60;;;0.00;99.90;;;;;;5004749;28;20197;-62
2023/03/11 02:31:00;;;;;;;11.77;4.47;;;0.10;99.90;;;;;;5006486;28;20198;-62
2023/03/11 02:33:32;;;;;;;12.90;4.67;;;0.10;99.90;;;;;;5008638;28;20218;-62
2023/03/11 02:36:00;;;;;;;9.33;4.40;;;0.20;99.90;;;;;;5003059;28;20229;-61
2023/03/11 02:38:28;;;;;;;12.77;5.20;;;0.20;99.90;;;;;;5006735;28;20213;-62
2023/03/11 02:40:58;;;;;;;13.20;4.20;;;0.30;99.90;;;;;;5004055;28;20616;-62
2023/03/11 02:43:35;;;;;;;13.63;4.60;;;0.40;99.90;;;;;;5005370;28;20194;-62
2023/03/11 02:46:08;;;;;;;11.30;4.43;;;0.40;99.90;;;;;;5004014;28;20198;-62
2023/03/11 02:48:38;;;;;;;6.30;4.33;;;0.40;99.90;;;;;;5009722;28;20275;-63
2023/03/11 02:51:07;;;;;;;7.03;3.90;;;0.50;99.90;;;;;;5009183;28;20269;-62
2023/03/11 02:53:39;;;;;;;8.13;3.97;;;0.50;99.90;;;;;;5011652;28;20218;-62
2023/03/11 02:56:07;;;;;;;9.57;3.83;;;0.40;99.90;;;;;;5013561;28;20257;-62
2023/03/11 02:58:37;;;;;;;5.33;3.93;;;0.40;99.90;;;;;;5016815;28;20248;-62
2023/03/11 03:01:06;;;;;;;13.00;4.03;;;0.40;99.90;;;;;;5032089;28;20208;-62
2023/03/11 03:03:34;;;;;;;7.97;4.10;;;0.40;99.90;;;;;;5024126;28;20214;-62
2023/03/11 03:06:02;;;;;;;8.47;3.93;;;0.40;99.90;;;;;;5033336;28;20253;-62
2023/03/11 03:08:30;;;;;;;8.17;3.80;;;0.40;99.90;;;;;;5023531;28;20217;-62
2023/03/11 03:11:00;;;;;;;6.20;3.63;;;0.40;99.90;;;;;;5020118;28;20271;-62
2023/03/11 03:13:28;;;;;;;5.10;3.50;;;0.40;99.90;;;;;;5021395;28;20260;-63
2023/03/11 03:15:57;;;;;;;5.33;3.70;;;0.40;99.90;;;;;;5021610;28;20197;-62
2023/03/11 03:18:26;;;;;;;5.23;3.67;;;0.40;99.90;;;;;;5026477;28;20230;-62
2023/03/11 03:20:54;;;;;;;6.00;3.83;;;0.40;99.90;;;;;;5034044;28;20220;-63
2023/03/11 03:23:23;;;;;;;5.60;3.87;;;0.40;99.90;;;;;;5022172;28;20218;-62
2023/03/11 03:25:51;;;;;;;8.23;3.87;;;0.40;99.90;;;;;;5011771;28;20221;-62
2023/03/11 03:28:19;;;;;;;5.77;3.83;;;0.40;99.90;;;;;;5026237;28;20185;-62
2023/03/11 03:30:47;;;;;;;6.27;4.10;;;0.40;99.90;;;;;;5004383;28;20357;-62
2023/03/11 03:33:17;;;;;;;9.77;4.10;;;0.40;99.90;;;;;;5019450;28;20631;-63
2023/03/11 03:35:46;;;;;;;7.50;3.73;;;0.50;99.90;;;;;;5021406;28;20237;-62
2023/03/11 03:38:14;;;;;;;6.63;4.00;;;0.50;99.90;;;;;;5025236;28;20214;-63
2023/03/11 03:40:46;;;;;;;9.10;4.03;;;0.50;99.90;;;;;;5027741;28;20279;-62
2023/03/11 03:43:15;;;;;;;7.03;3.70;;;0.50;99.90;;;;;;5027977;28;20189;-63
2023/03/11 03:45:43;;;;;;;6.87;4.00;;;0.50;99.90;;;;;;5026192;28;20243;-62
2023/03/11 03:48:11;;;;;;;9.93;4.00;;;0.50;99.90;;;;;;5012120;28;20228;-62
2023/03/11 03:50:41;;;;;;;9.80;3.77;;;0.50;99.90;;;;;;5017434;28;20224;-62
2023/03/11 03:53:09;;;;;;;7.87;3.97;;;0.50;99.90;;;;;;5021139;28;20288;-62
2023/03/11 03:55:38;;;;;;;9.43;3.53;;;0.50;99.90;;;;;;5006301;28;20226;-62
2023/03/11 03:58:06;;;;;;;7.37;3.70;;;0.50;99.90;;;;;;5021982;28;20595;-62
2023/03/11 04:00:35;;;;;;;13.40;5.53;;;0.50;99.90;;;;;;5005126;28;20256;-62
2023/03/11 04:03:03;;;;;;;11.97;4.67;;;0.50;99.90;;;;;;5006838;28;20280;-62
2023/03/11 04:05:31;;;;;;;13.37;4.50;;;0.50;99.90;;;;;;5004850;28;20218;-63
2023/03/11 04:08:01;;;;;;;9.30;4.20;;;0.40;99.90;;;;;;5005114;28;20807;-63
2023/03/11 04:10:29;;;;;;;7.63;3.97;;;0.30;99.90;;;;;;5005597;28;20214;-62
2023/03/11 04:12:57;;;;;;;5.60;3.73;;;0.30;99.90;;;;;;5005380;28;20214;-63
2023/03/11 04:15:25;;;;;;;12.50;3.73;;;0.20;99.90;;;;;;5000045;28;20228;-62
2023/03/11 04:17:54;;;;;;;6.50;3.50;;;0.10;99.90;;;;;;5017579;28;20210;-62
2023/03/11 04:20:22;;;;;;;8.23;3.30;;;0.00;99.90;;;;;;5020707;28;20245;-62
2023/03/11 04:22:50;;;;;;;7.87;3.67;;;0.00;99.90;;;;;;5011457;28;20703;-63
2023/03/11 04:25:20;;;;;;;7.27;3.23;;;-0.10;99.90;;;;;;5011229;28;20194;-62
2023/03/11 04:27:48;;;;;;;10.13;3.30;;;-0.10;99.90;;;;;;5008762;28;20756;-62
2023/03/11 04:30:17;;;;;;;11.83;3.63;;;-0.20;99.90;;;;;;5012265;28;20217;-62
2023/03/11 04:32:45;;;;;;;11.33;3.60;;;-0.20;99.90;;;;;;5012132;28;20634;-62
2023/03/11 04:35:14;;;;;;;5.67;3.40;;;-0.20;99.90;;;;;;5009998;28;20225;-63
2023/03/11 04:37:43;;;;;;;7.17;3.70;;;-0.30;99.90;;;;;;5012923;28;20723;-62
2023/03/11 04:40:12;;;;;;;6.53;3.50;;;-0.30;99.90;;;;;;5010263;28;20194;-63
2023/03/11 04:42:41;;;;;;;4.20;3.53;;;-0.30;99.90;;;;;;5008820;28;20268;-62
2023/03/11 04:45:12;;;;;;;7.87;3.97;;;-0.20;99.90;;;;;;5007717;28;20222;-62
2023/03/11 04:47:40;;;;;;;10.20;3.60;;;-0.20;99.90;;;;;;5006680;28;21345;-62
2023/03/11 04:50:09;;;;;;;9.30;3.80;;;-0.20;99.90;;;;;;5019659;28;20286;-62
2023/03/11 04:52:38;;;;;;;5.67;3.77;;;-0.20;99.90;;;;;;5026408;28;20197;-62
2023/03/11 04:55:07;;;;;;;11.47;3.93;;;-0.30;99.90;;;;;;5008029;28;20226;-62
2023/03/11 04:57:35;;;;;;;9.53;4.57;;;-0.30;99.90;;;;;;5008867;28;20621;-62
2023/03/11 05:00:08;;;;;;;6.90;4.47;;;-0.30;99.90;;;;;;5008782;28;20276;-62
2023/03/11 05:02:37;;;;;;;10.70;5.23;;;-0.30;99.90;;;;;;5009900;28;20658;-61
2023/03/11 05:05:06;;;;;;;8.20;4.77;;;-0.30;99.90;;;;;;5006638;28;20226;-62
2023/03/11 05:07:35;;;;;;;5.53;4.87;;;-0.30;99.90;;;;;;5011408;28;20283;-62
2023/03/11 05:10:04;;;;;;;8.87;4.70;;;-0.40;99.90;;;;;;5007951;28;20653;-62
2023/03/11 05:12:32;;;;;;;13.67;5.60;;;-0.40;99.90;;;;;;5011864;28;20249;-61
2023/03/11 05:15:00;;;;;;;14.90;6.00;;;-0.50;99.90;;;;;;5008532;28;20277;-62
2023/03/11 05:17:30;;;;;;;8.43;5.43;;;-0.50;99.90;;;;;;5013235;28;20634;-62
2023/03/11 05:19:59;;;;;;;10.47;6.17;;;-0.60;99.90;;;;;;5010917;28;20214;-61
2023/03/11 05:22:27;;;;;;;13.40;6.00;;;-0.60;99.90;;;;;;5005925;28;20217;-61
2023/03/11 05:24:55;;;;;;;12.20;6.30;;;-0.70;99.90;;;;;;5024481;28;20563;-61
2023/03/11 05:27:24;;;;;;;10.90;6.03;;;-0.70;99.90;;;;;;5024472;28;20217;-61
2023/03/11 05:29:52;;;;;;;8.97;5.00;;;-0.70;99.90;;;;;;5013476;28;20226;-61
2023/03/11 05:32:20;;;;;;;8.07;4.90;;;-0.80;99.90;;;;;;5020224;28;20225;-61
2023/03/11 05:34:51;;;;;;;8.63;5.30;;;-0.80;99.90;;;;;;5026071;28;20248;-62
2023/03/11 05:37:19;;;;;;;9.90;5.40;;;-0.80;99.90;;;;;;5032125;28;20509;-61
2023/03/11 05:39:48;;;;;;;12.43;5.00;;;-0.90;99.90;;;;;;5002870;28;20269;-62
2023/03/11 05:42:16;;;;;;;8.67;5.33;;;-0.90;99.90;;;;;;5003739;28;20230;-62
2023/03/11 05:44:45;;;;;;;10.93;5.53;;;-1.00;99.90;;;;;;5004549;28;20764;-62
2023/03/11 05:47:13;;;;;;;11.00;5.43;;;-1.00;99.90;;;;;;5004804;28;20635;-61
2023/03/11 05:49:41;;;;;;;7.30;5.33;;;-1.10;99.90;;;;;;5005027;28;20272;-61
2023/03/11 05:52:11;;;;;;;9.20;5.60;;;-1.10;99.90;;;;;;4999949;28;20206;-62
2023/03/11 05:54:39;;;;;;;11.27;5.37;;;-1.10;99.90;;;;;;5008031;28;20272;-61
2023/03/11 05:57:07;;;;;;;18.33;7.40;;;-1.10;99.90;;;;;;5011742;28;20746;-62
2023/03/11 05:59:36;;;;;;;20.73;9.47;;;-1.10;99.90;;;;;;5022650;28;20240;-61
2023/03/11 06:02:05;;;;;;;21.93;8.80;;;-1.00;99.90;;;;;;5025551;28;20284;-61
2023/03/11 06:04:33;;;;;;;57.03;18.57;;;-1.00;99.90;;;;;;5005054;28;20190;-62
2023/03/11 06:07:01;;;;;;;22.93;8.93;;;-1.00;99.90;;;;;;5005247;28;20236;-61
2023/03/11 06:09:31;;;;;;;17.80;7.60;;;-1.00;99.90;;;;;;5015760;28;20253;-62
2023/03/11 06:11:59;;;;;;;15.63;7.70;;;-1.00;99.90;;;;;;5006004;28;20256;-62
2023/03/11 06:14:30;;;;;;;11.90;7.03;;;-1.00;99.90;;;;;;5008234;28;20759;-61
2023/03/11 06:16:59;;;;;;;13.77;7.00;;;-1.10;99.90;;;;;;5007584;28;20225;-61
2023/03/11 06:19:27;;;;;;;13.33;7.37;;;-1.10;99.90;;;;;;5006734;28;20240;-61
2023/03/11 06:21:55;;;;;;;20.73;9.47;;;-1.10;99.90;;;;;;5008993;28;20198;-61
2023/03/11 06:24:23;;;;;;;20.50;9.13;;;-1.20;99.90;;;;;;5007226;28;20583;-61
2023/03/11 06:26:53;;;;;;;20.37;8.13;;;-1.10;99.90;;;;;;5025634;28;20210;-61
2023/03/11 06:29:23;;;;;;;16.97;8.17;;;-1.10;99.90;;;;;;5021700;28;20262;-61
2023/03/11 06:31:51;;;;;;;36.23;11.03;;;-1.10;99.90;;;;;;5006252;28;20222;-61
2023/03/11 06:34:19;;;;;;;28.60;10.63;;;-1.00;99.90;;;;;;5005555;28;20190;-61
2023/03/11 06:36:47;;;;;;;85.83;18.73;;;-0.90;99.90;;;;;;5013272;28;20786;-62
2023/03/11 06:39:16;;;;;;;67.10;16.17;;;-0.90;99.90;;;;;;5007890;28;20266;-61
2023/03/11 06:41:44;;;;;;;65.23;16.07;;;-0.90;99.90;;;;;;5005287;28;20263;-61
2023/03/11 06:44:13;;;;;;;53.50;13.57;;;-0.90;99.90;;;;;;5004910;28;20230;-61
2023/03/11 06:46:41;;;;;;;50.27;13.97;;;-0.80;99.90;;;;;;5002192;28;20632;-61
2023/03/11 06:49:10;;;;;;;47.53;12.90;;;-0.80;99.90;;;;;;5004006;28;20783;-61
2023/03/11 06:51:38;;;;;;;27.60;9.80;;;-0.80;99.90;;;;;;5009408;28;20237;-61
2023/03/11 06:54:07;;;;;;;22.43;8.87;;;-0.70;99.90;;;;;;5023167;28;20284;-60
2023/03/11 06:56:35;;;;;;;30.87;9.07;;;-0.60;99.90;;;;;;5017122;28;20225;-61
2023/03/11 06:59:03;;;;;;;18.20;9.40;;;-0.60;99.90;;;;;;5033390;28;20225;-61
2023/03/11 07:01:33;;;;;;;17.33;8.43;;;-0.50;99.90;;;;;;5027037;28;20894;-61
2023/03/11 07:04:01;;;;;;;15.97;9.17;;;-0.40;99.90;;;;;;5006856;28;20217;-61
2023/03/11 07:06:29;;;;;;;18.63;9.23;;;-0.30;99.90;;;;;;5002209;28;20233;-61
2023/03/11 07:08:58;;;;;;;18.47;10.03;;;-0.30;99.90;;;;;;5005089;28;20596;-61
2023/03/11 07:11:27;;;;;;;24.00;10.87;;;-0.30;99.90;;;;;;5005171;28;20980;-61
2023/03/11 07:13:56;;;;;;;24.33;10.73;;;-0.20;99.90;;;;;;5007388;28;20296;-61
2023/03/11 07:16:28;;;;;;;17.77;9.73;;;-0.10;99.90;;;;;;5011305;28;20197;-61
2023/03/11 07:19:02;;;;;;;19.83;10.00;;;-0.10;99.90;;;;;;5024754;28;20204;-61
2023/03/11 07:21:31;;;;;;;16.97;10.27;;;0.10;99.90;;;;;;5008561;28;21237;-61
2023/03/11 07:24:01;;;;;;;33.27;10.97;;;0.20;99.90;;;;;;5006520;28;20793;-61
2023/03/11 07:26:30;;;;;;;21.27;10.83;;;0.20;99.90;;;;;;5014465;28;20233;-62
2023/03/11 07:28:59;;;;;;;16.90;10.17;;;0.30;99.90;;;;;;5010185;28;20608;-62
2023/03/11 07:31:29;;;;;;;20.60;10.70;;;0.60;99.90;;;;;;5005735;28;20222;-61
2023/03/11 07:34:02;;;;;;;27.97;10.97;;;0.90;99.90;;;;;;5008190;28;20190;-62
2023/03/11 07:36:30;;;;;;;15.90;10.43;;;1.10;99.90;;;;;;5008490;28;20214;-62
2023/03/11 07:39:02;;;;;;;21.13;10.67;;;1.50;99.90;;;;;;5001550;28;20218;-63
2023/03/11 07:41:33;;;;;;;13.70;9.47;;;1.70;99.90;;;;;;5005550;28;20284;-62
2023/03/11 07:44:04;;;;;;;19.13;9.70;;;2.00;99.90;;;;;;5002341;28;20700;-62
2023/03/11 07:46:33;;;;;;;21.43;10.20;;;2.30;99.90;;;;;;5008849;28;20249;-63
2023/03/11 07:49:03;;;;;;;23.60;9.10;;;2.60;99.90;;;;;;5004107;28;20256;-63
2023/03/11 07:51:33;;;;;;;13.33;6.67;;;2.90;99.90;;;;;;5010220;28;20226;-63
2023/03/11 07:54:01;;;;;;;11.03;6.90;;;3.30;99.90;;;;;;5000626;28;20223;-63
2023/03/11 07:56:31;;;;;;;11.53;6.20;;;3.60;99.90;;;;;;5012524;28;20606;-63
2023/03/11 07:59:01;;;;;;;12.23;6.33;;;4.00;99.90;;;;;;5026154;28;20213;-63
2023/03/11 08:01:35;;;;;;;12.67;6.60;;;4.40;99.90;;;;;;5024185;28;20193;-63
2023/03/11 08:04:06;;;;;;;12.10;5.67;;;4.80;99.90;;;;;;5026987;28;20217;-63
2023/03/11 08:06:36;;;;;;;11.13;5.20;;;5.10;99.90;;;;;;5024725;28;20209;-63
2023/03/11 08:09:07;;;;;;;7.77;5.47;;;5.50;99.90;;;;;;5024967;28;20217;-63
2023/03/11 08:11:36;;;;;;;6.90;5.00;;;6.00;99.90;;;;;;5008598;28;20222;-63
2023/03/11 08:14:04;;;;;;;9.20;4.53;;;6.40;99.90;;;;;;5008927;28;20817;-63
2023/03/11 08:16:33;;;;;;;12.40;5.47;;;6.70;99.90;;;;;;5005062;28;20190;-63
2023/03/11 08:19:02;;;;;;;14.03;5.90;;;7.00;99.90;;;;;;5001461;28;20218;-63
2023/03/11 08:21:31;;;;;;;12.67;5.33;;;7.60;99.90;;;;;;5002276;28;20223;-63
2023/03/11 08:24:01;;;;;;;11.03;5.07;;;8.00;99.90;;;;;;5003520;28;20218;-63
2023/03/11 08:26:33;;;;;;;17.97;7.43;;;8.40;99.90;;;;;;5008356;28;20225;-64
2023/03/11 08:29:01;;;;;;;19.13;6.67;;;8.90;99.90;;;;;;5002448;28;20237;-64
2023/03/11 08:31:31;;;;;;;11.27;5.23;;;9.30;99.90;;;;;;5006413;28;20554;-64
2023/03/11 08:34:01;;;;;;;23.03;7.83;;;10.00;99.90;;;;;;5001994;28;20285;-64
2023/03/11 08:36:32;;;;;;;17.43;6.23;;;10.60;99.90;;;;;;4992597;28;20229;-64
2023/03/11 08:39:00;;;;;;;20.30;7.00;;;10.90;99.90;;;;;;4996771;28;20903;-64
2023/03/11 08:41:29;;;;;;;11.63;4.60;;;11.10;99.90;;;;;;5008559;28;20233;-64
2023/03/11 08:43:57;;;;;;;9.13;4.87;;;10.90;99.90;;;;;;5007091;28;20237;-64
2023/03/11 08:46:28;;;;;;;6.47;3.83;;;10.80;99.90;;;;;;5006213;28;20633;-64
2023/03/11 08:48:58;;;;;;;7.60;4.57;;;10.70;99.90;;;;;;5004023;28;20190;-64
2023/03/11 08:51:29;;;;;;;11.23;4.27;;;10.50;99.90;;;;;;5007793;28;20226;-64
2023/03/11 08:53:59;;;;;;;7.07;4.10;;;10.40;99.90;;;;;;5003052;28;20280;-64
2023/03/11 08:56:28;;;;;;;8.80;4.37;;;10.40;99.90;;;;;;5008457;28;20230;-65
2023/03/11 08:58:56;;;;;;;4.63;3.67;;;10.40;99.90;;;;;;5004446;28;20222;-65
2023/03/11 09:01:24;;;;;;;5.63;3.70;;;10.60;99.90;;;;;;5013472;28;20198;-64
2023/03/11 09:03:53;;;;;;;9.10;3.33;;;10.80;99.90;;;;;;5007645;28;20596;-64
2023/03/11 09:06:23;;;;;;;8.33;3.23;;;11.00;99.90;;;;;;5005175;28;20676;-64
2023/03/11 09:08:51;;;;;;;3.43;2.97;;;11.10;99.90;;;;;;5010567;28;20238;-65
2023/03/11 09:11:21;;;;;;;8.07;3.60;;;11.20;99.90;;;;;;5005835;28;20213;-64
2023/03/11 09:13:50;;;;;;;7.20;3.17;;;11.50;99.90;;;;;;5011956;28;20224;-65
2023/03/11 09:16:20;;;;;;;7.77;3.00;;;11.50;99.90;;;;;;5005249;28;20200;-64
2023/03/11 09:18:50;;;;;;;6.10;2.20;;;11.30;99.90;;;;;;5012302;28;20251;-65
2023/03/11 09:21:18;;;;;;;4.83;2.47;;;11.20;99.90;;;;;;5008329;28;20271;-64
2023/03/11 09:23:46;;;;;;;8.30;2.93;;;11.20;99.90;;;;;;5022840;28;20219;-64
2023/03/11 09:26:15;;;;;;;8.40;2.67;;;11.40;99.90;;;;;;5027270;28;20241;-64
2023/03/11 09:28:47;;;;;;;4.17;3.00;;;11.70;99.90;;;;;;5020759;28;20274;-64
2023/03/11 09:31:16;;;;;;;4.33;2.17;;;11.70;99.90;;;;;;5026562;28;20184;-64
2023/03/11 09:33:46;;;;;;;5.83;1.60;;;11.80;99.90;;;;;;5006690;28;20228;-64
2023/03/11 09:36:16;;;;;;;6.27;2.10;;;11.70;99.90;;;;;;5008031;28;20267;-64
2023/03/11 09:38:44;;;;;;;4.53;2.07;;;11.80;99.90;;;;;;5006117;28;20227;-64
2023/03/11 09:41:24;;;;;;;5.83;1.90;;;12.00;99.90;;;;;;5004688;28;20224;-64
2023/03/11 09:44:17;;;;;;;5.87;1.70;;;11.90;99.90;;;;;;5010477;28;20282;-64
2023/03/11 09:47:18;;;;;;;6.07;2.00;;;12.20;99.90;;;;;;5011028;28;20220;-64
2023/03/11 09:50:04;;;;;;;4.37;2.20;;;12.60;99.90;;;;;;4984733;28;20240;-64
2023/03/11 09:52:38;;;;;;;12.20;2.47;;;12.80;99.90;;;;;;5029113;28;20285;-64
2023/03/11 09:55:21;;;;;;;5.17;1.90;;;12.70;99.90;;;;;;5016048;28;20248;-64
2023/03/11 09:57:51;;;;;;;6.77;2.03;;;12.70;99.90;;;;;;5008967;28;20221;-64
2023/03/11 10:00:23;;;;;;;3.80;1.90;;;12.30;99.90;;;;;;5005183;28;20230;-64
2023/03/11 10:02:52;;;;;;;6.50;2.30;;;12.30;99.90;;;;;;5005135;28;20218;-64
2023/03/11 10:05:23;;;;;;;7.07;2.40;;;12.40;99.90;;;;;;5007035;28;20222;-64
2023/03/11 10:07:57;;;;;;;3.23;2.13;;;12.70;99.90;;;;;;5009342;28;20218;-65
2023/03/11 10:10:29;;;;;;;6.57;1.83;;;13.20;99.90;;;;;;5002893;28;20196;-64
2023/03/11 10:13:04;;;;;;;7.73;2.30;;;13.60;99.90;;;;;;4994826;28;20237;-64
2023/03/11 10:15:47;;;;;;;5.53;2.10;;;12.90;99.90;;;;;;4994493;28;20245;-64
2023/03/11 10:18:30;;;;;;;6.33;1.87;;;12.00;99.90;;;;;;5000094;28;20581;-63
2023/03/11 10:21:05;;;;;;;3.30;2.03;;;11.30;99.90;;;;;;5007431;28;20219;-64
2023/03/11 10:23:47;;;;;;;7.13;2.57;;;10.70;99.90;;;;;;5015411;28;20276;-64
2023/03/11 10:26:23;;;;;;;4.87;1.83;;;10.20;99.90;;;;;;5023733;28;20293;-63
2023/03/11 10:28:54;;;;;;;3.10;2.10;;;9.80;99.90;;;;;;5026882;28;20217;-63
2023/03/11 10:31:27;;;;;;;7.27;2.10;;;9.60;99.90;;;;;;5023666;28;20224;-63
2023/03/11 10:33:59;;;;;;;5.87;2.00;;;9.40;99.90;;;;;;5024508;28;20209;-63
2023/03/11 10:36:35;;;;;;;5.83;2.00;;;9.40;99.90;;;;;;5026785;28;20221;-63
2023/03/11 10:39:06;;;;;;;6.47;2.13;;;9.70;99.90;;;;;;5024396;28;20757;-63
2023/03/11 10:41:42;;;;;;;2.70;1.83;;;10.10;99.90;;;;;;5025915;28;20229;-63
2023/03/11 10:44:15;;;;;;;4.50;1.90;;;9.90;99.90;;;;;;5022071;28;20224;-63
2023/03/11 10:46:45;;;;;;;4.53;2.00;;;9.80;99.90;;;;;;5022767;28;20218;-63
2023/03/11 10:49:15;;;;;;;5.57;2.20;;;9.80;99.90;;;;;;5027083;28;20217;-63
2023/03/11 10:51:46;;;;;;;4.13;2.20;;;9.50;99.90;;;;;;5027319;28;20222;-63
2023/03/11 10:54:23;;;;;;;7.63;2.17;;;9.30;99.90;;;;;;5018291;28;20221;-63
2023/03/11 10:56:55;;;;;;;3.20;2.07;;;9.10;99.90;;;;;;5026963;28;20229;-62
2023/03/11 10:59:27;;;;;;;7.73;2.30;;;8.90;99.90;;;;;;5026505;28;20218;-63
2023/03/11 11:01:59;;;;;;;5.00;2.03;;;8.90;99.90;;;;;;5026561;28;20224;-62
2023/03/11 11:04:31;;;;;;;6.73;1.97;;;9.10;99.90;;;;;;5029883;28;20194;-62
2023/03/11 11:07:19;;;;;;;5.27;2.33;;;9.00;99.90;;;;;;5025334;28;20247;-63
2023/03/11 11:09:48;;;;;;;7.47;1.80;;;9.10;99.90;;;;;;5004757;28;20226;-62
2023/03/11 11:12:20;;;;;;;7.47;2.13;;;9.20;99.90;;;;;;5003348;28;20225;-62
2023/03/11 11:14:51;;;;;;;8.83;2.23;;;9.00;99.90;;;;;;5003453;28;20287;-63
2023/03/11 11:17:24;;;;;;;3.37;1.73;;;9.30;99.90;;;;;;5006204;28;20629;-63
2023/03/11 11:19:55;;;;;;;3.87;2.27;;;9.60;99.90;;;;;;5007906;28;20229;-63
2023/03/11 11:22:25;;;;;;;8.27;2.10;;;10.00;99.90;;;;;;5003717;28;20187;-62
2023/03/11 11:24:55;;;;;;;6.63;1.90;;;10.30;99.90;;;;;;5010342;28;20219;-62
2023/03/11 11:27:25;;;;;;;5.10;2.00;;;10.30;99.90;;;;;;5009668;28;20229;-63
2023/03/11 11:30:14;;;;;;;9.07;2.30;;;10.20;99.90;;;;;;5007746;28;20684;-63
2023/03/11 11:32:44;;;;;;;5.57;2.00;;;10.20;99.90;;;;;;5008597;28;20214;-63
2023/03/11 11:35:14;;;;;;;4.37;2.00;;;10.30;99.90;;;;;;5012861;28;20221;-63
2023/03/11 11:37:46;;;;;;;3.40;2.03;;;10.10;99.90;;;;;;5004021;28;20226;-63
2023/03/11 11:40:24;;;;;;;4.63;2.13;;;10.10;99.90;;;;;;5001503;28;20284;-63
2023/03/11 11:42:56;;;;;;;3.83;2.03;;;10.20;99.90;;;;;;4997419;28;20210;-63
2023/03/11 11:45:32;;;;;;;5.80;1.77;;;10.50;99.90;;;;;;5001706;28;22626;-62
2023/03/11 11:48:09;;;;;;;5.73;1.83;;;10.20;99.90;;;;;;4996596;28;20271;-63
2023/03/11 11:50:43;;;;;;;5.13;1.73;;;10.20;99.90;;;;;;5005045;28;20225;-63
2023/03/11 11:53:23;;;;;;;3.67;2.00;;;10.50;99.90;;;;;;5008841;28;20237;-63
2023/03/11 11:55:53;;;;;;;4.17;1.80;;;11.20;99.90;;;;;;5003282;28;20280;-63
2023/03/11 11:58:22;;;;;;;4.70;2.13;;;11.40;99.90;;;;;;5004422;28;20221;-63
2023/03/11 12:01:03;;;;;;;5.80;2.10;;;11.40;99.90;;;;;;5009368;28;20670;-63
2023/03/11 12:04:01;;;;;;;2.83;1.80;;;11.20;99.90;;;;;;5021159;28;20244;-63
2023/03/11 12:06:34;;;;;;;4.83;1.90;;;10.70;99.90;;;;;;5020464;28;20227;-62
2023/03/11 12:09:13;;;;;;;2.77;2.20;;;10.60;99.90;;;;;;5009533;28;20272;-63
2023/03/11 12:11:49;;;;;;;5.73;1.80;;;10.90;99.90;;;;;;5001070;28;20226;-62
2023/03/11 12:14:23;;;;;;;6.93;2.13;;;10.80;99.90;;;;;;5001123;28;20655;-63
2023/03/11 12:16:57;;;;;;;6.63;1.97;;;10.90;99.90;;;;;;5000995;28;20260;-63
2023/03/11 12:19:38;;;;;;;2.20;1.83;;;11.00;99.90;;;;;;5008125;28;20193;-63
2023/03/11 12:22:39;;;;;;;6.17;2.17;;;10.90;99.90;;;;;;5005371;28;20221;-63
2023/03/11 12:25:25;;;;;;;4.77;2.00;;;10.90;99.90;;;;;;5026417;28;20229;-63
2023/03/11 12:27:59;;;;;;;6.40;2.17;;;10.50;99.90;;;;;;5018915;28;20880;-63
2023/03/11 12:30:31;;;;;;;5.27;2.10;;;10.20;99.90;;;;;;5005361;28;20221;-63
2023/03/11 12:33:03;;;;;;;5.27;2.20;;;10.10;99.90;;;;;;5021937;28;20217;-63
2023/03/11 12:35:34;;;;;;;6.00;2.13;;;10.30;99.90;;;;;;5020693;28;20218;-62
2023/03/11 12:38:14;;;;;;;9.97;2.93;;;10.80;99.90;;;;;;5018642;28;20226;-63
2023/03/11 12:40:57;;;;;;;5.27;2.23;;;11.20;99.90;;;;;;4997490;28;20279;-62
2023/03/11 12:44:00;;;;;;;5.70;1.90;;;11.30;99.90;;;;;;5001147;28;20194;-63
2023/03/11 12:47:10;;;;;;;2.73;2.00;;;11.40;99.90;;;;;;5004831;28;20276;-62
2023/03/11 12:49:42;;;;;;;5.47;1.80;;;11.50;99.90;;;;;;5008974;28;20197;-63
2023/03/11 12:52:33;;;;;;;5.50;2.33;;;11.00;99.90;;;;;;5002028;28;20721;-63
2023/03/11 12:55:31;;;;;;;2.67;1.87;;;10.40;99.90;;;;;;5022098;28;21155;-62
2023/03/11 12:58:38;;;;;;;5.23;1.80;;;10.10;99.90;;;;;;4997156;28;20317;-62
2023/03/11 13:01:40;;;;;;;4.63;1.90;;;10.30;99.90;;;;;;4999289;28;20225;-62
2023/03/11 13:04:33;;;;;;;3.33;2.13;;;10.50;99.90;;;;;;4969418;28;20316;-63
2023/03/11 13:07:35;;;;;;;5.63;2.10;;;10.70;99.90;;;;;;5024457;28;20249;-63